sensor_id;sensor_type;location;lat;lon;timestamp;pressure;altitude;pressure_sealevel;temperature;humidity
75045;BME280;63614;56.026;35.960;2023-09-08T00:00:42;99788.13;;;10.77;74.59
75045;BME280;63614;56.026;35.960;2023-09-08T00:03:08;99777.19;;;10.82;74.53
75045;BME280;63614;56.026;35.960;2023-09-08T00:05:34;99782.00;;;10.85;74.22
75045;BME280;63614;56.026;35.960;2023-09-08T00:08:00;99774.84;;;10.87;74.27
75045;BME280;63614;56.026;35.960;2023-09-08T00:10:25;99782.91;;;10.92;74.11
75045;BME280;63614;56.026;35.960;2023-09-08T00:12:51;99779.69;;;10.90;73.81
75045;BME280;63614;56.026;35.960;2023-09-08T00:15:17;99784.00;;;10.83;74.02
75045;BME280;63614;56.026;35.960;2023-09-08T00:17:42;99788.84;;;10.86;74.20
75045;BME280;63614;56.026;35.960;2023-09-08T00:20:08;99788.31;;;10.76;74.23
75045;BME280;63614;56.026;35.960;2023-09-08T00:22:35;99784.44;;;10.71;74.53
75045;BME280;63614;56.026;35.960;2023-09-08T00:25:00;99785.06;;;10.73;74.63
75045;BME280;63614;56.026;35.960;2023-09-08T00:27:26;99784.44;;;10.86;74.56
75045;BME280;63614;56.026;35.960;2023-09-08T00:29:52;99779.22;;;10.86;74.45
75045;BME280;63614;56.026;35.960;2023-09-08T00:32:18;99776.81;;;10.85;74.48
75045;BME280;63614;56.026;35.960;2023-09-08T00:34:44;99772.59;;;10.84;74.38
75045;BME280;63614;56.026;35.960;2023-09-08T00:37:09;99781.03;;;10.86;74.77
75045;BME280;63614;56.026;35.960;2023-09-08T00:39:37;99782.22;;;10.83;74.47
75045;BME280;63614;56.026;35.960;2023-09-08T00:42:03;99780.22;;;10.85;75.02
75045;BME280;63614;56.026;35.960;2023-09-08T00:44:29;99783.28;;;10.89;74.96
75045;BME280;63614;56.026;35.960;2023-09-08T00:46:55;99781.75;;;10.80;75.24
75045;BME280;63614;56.026;35.960;2023-09-08T00:49:21;99776.81;;;10.85;75.74
75045;BME280;63614;56.026;35.960;2023-09-08T00:51:48;99775.81;;;10.86;75.48
75045;BME280;63614;56.026;35.960;2023-09-08T00:54:14;99774.13;;;10.78;76.04
75045;BME280;63614;56.026;35.960;2023-09-08T00:56:41;99780.94;;;10.79;76.22
75045;BME280;63614;56.026;35.960;2023-09-08T00:59:08;99772.59;;;10.84;76.33
75045;BME280;63614;56.026;35.960;2023-09-08T01:01:34;99774.84;;;10.87;76.61
75045;BME280;63614;56.026;35.960;2023-09-08T01:04:01;99770.44;;;10.87;75.99
75045;BME280;63614;56.026;35.960;2023-09-08T01:06:27;99764.06;;;10.75;76.71
75045;BME280;63614;56.026;35.960;2023-09-08T01:08:54;99771.06;;;10.75;77.20
75045;BME280;63614;56.026;35.960;2023-09-08T01:11:21;99763.72;;;10.78;77.25
75045;BME280;63614;56.026;35.960;2023-09-08T01:13:47;99762.28;;;10.76;77.27
75045;BME280;63614;56.026;35.960;2023-09-08T01:16:13;99765.50;;;10.78;77.46
75045;BME280;63614;56.026;35.960;2023-09-08T01:18:39;99765.50;;;10.78;77.64
75045;BME280;63614;56.026;35.960;2023-09-08T01:23:59;99757.34;;;10.81;78.05
75045;BME280;63614;56.026;35.960;2023-09-08T01:26:36;99760.13;;;10.79;78.05
75045;BME280;63614;56.026;35.960;2023-09-08T01:29:03;99759.16;;;10.80;78.33
75045;BME280;63614;56.026;35.960;2023-09-08T01:31:32;99755.97;;;10.85;78.56
75045;BME280;63614;56.026;35.960;2023-09-08T01:34:00;99746.22;;;10.87;78.35
75045;BME280;63614;56.026;35.960;2023-09-08T01:36:27;99733.66;;;10.76;78.55
75045;BME280;63614;56.026;35.960;2023-09-08T01:38:52;99735.75;;;10.80;78.90
75045;BME280;63614;56.026;35.960;2023-09-08T01:41:18;99732.13;;;10.81;79.80
75045;BME280;63614;56.026;35.960;2023-09-08T01:43:44;99728.28;;;10.77;79.90
75045;BME280;63614;56.026;35.960;2023-09-08T01:46:10;99728.19;;;10.85;79.43
75045;BME280;63614;56.026;35.960;2023-09-08T01:48:35;99727.66;;;10.90;79.56
75045;BME280;63614;56.026;35.960;2023-09-08T01:51:01;99730.06;;;10.77;80.51
75045;BME280;63614;56.026;35.960;2023-09-08T01:53:27;99720.56;;;10.69;80.67
75045;BME280;63614;56.026;35.960;2023-09-08T01:55:53;99719.03;;;10.60;81.13
75045;BME280;63614;56.026;35.960;2023-09-08T01:58:19;99714.91;;;10.65;81.31
75045;BME280;63614;56.026;35.960;2023-09-08T02:00:49;99713.84;;;10.75;81.28
75045;BME280;63614;56.026;35.960;2023-09-08T02:03:15;99707.66;;;10.76;81.31
75045;BME280;63614;56.026;35.960;2023-09-08T02:05:41;99705.75;;;10.84;80.89
75045;BME280;63614;56.026;35.960;2023-09-08T02:08:07;99709.59;;;10.73;80.63
75045;BME280;63614;56.026;35.960;2023-09-08T02:10:33;99704.94;;;10.69;81.46
75045;BME280;63614;56.026;35.960;2023-09-08T02:12:59;99706.94;;;10.67;81.72
75045;BME280;63614;56.026;35.960;2023-09-08T02:15:25;99707.81;;;10.59;81.71
75045;BME280;63614;56.026;35.960;2023-09-08T02:17:54;99695.91;;;10.65;81.42
75045;BME280;63614;56.026;35.960;2023-09-08T02:20:40;99693.84;;;10.45;82.59
75045;BME280;63614;56.026;35.960;2023-09-08T02:23:06;99692.47;;;10.49;82.51
75045;BME280;63614;56.026;35.960;2023-09-08T02:25:33;99697.78;;;10.56;81.68
75045;BME280;63614;56.026;35.960;2023-09-08T02:27:59;99695.47;;;10.61;81.54
75045;BME280;63614;56.026;35.960;2023-09-08T02:30:25;99692.03;;;10.61;81.57
75045;BME280;63614;56.026;35.960;2023-09-08T02:32:52;99689.16;;;10.70;81.66
75045;BME280;63614;56.026;35.960;2023-09-08T02:35:17;99692.75;;;10.69;81.97
75045;BME280;63614;56.026;35.960;2023-09-08T02:37:43;99688.88;;;10.65;81.35
75045;BME280;63614;56.026;35.960;2023-09-08T02:40:09;99682.91;;;10.65;81.59
75045;BME280;63614;56.026;35.960;2023-09-08T02:42:36;99683.44;;;10.60;81.72
75045;BME280;63614;56.026;35.960;2023-09-08T02:45:02;99680.22;;;10.58;81.66
75045;BME280;63614;56.026;35.960;2023-09-08T02:47:30;99681.63;;;10.61;81.25
75045;BME280;63614;56.026;35.960;2023-09-08T02:49:57;99687.19;;;10.58;81.45
75045;BME280;63614;56.026;35.960;2023-09-08T02:52:23;99689.53;;;10.52;81.86
75045;BME280;63614;56.026;35.960;2023-09-08T02:54:49;99690.88;;;10.48;81.93
75045;BME280;63614;56.026;35.960;2023-09-08T02:57:15;99681.28;;;10.49;82.35
75045;BME280;63614;56.026;35.960;2023-09-08T02:59:40;99698.34;;;10.51;82.36
75045;BME280;63614;56.026;35.960;2023-09-08T03:02:07;99695.09;;;10.49;82.87
75045;BME280;63614;56.026;35.960;2023-09-08T03:04:33;99694.63;;;10.46;82.67
75045;BME280;63614;56.026;35.960;2023-09-08T03:06:59;99700.13;;;10.36;83.04
75045;BME280;63614;56.026;35.960;2023-09-08T03:09:26;99698.81;;;10.32;84.07
75045;BME280;63614;56.026;35.960;2023-09-08T03:11:51;99693.97;;;10.29;84.04
75045;BME280;63614;56.026;35.960;2023-09-08T03:14:17;99696.88;;;10.34;83.80
75045;BME280;63614;56.026;35.960;2023-09-08T03:16:43;99699.34;;;10.27;84.39
75045;BME280;63614;56.026;35.960;2023-09-08T03:19:09;99694.31;;;10.26;84.12
75045;BME280;63614;56.026;35.960;2023-09-08T03:21:35;99698.09;;;10.23;84.22
75045;BME280;63614;56.026;35.960;2023-09-08T03:24:01;99705.19;;;10.29;84.14
75045;BME280;63614;56.026;35.960;2023-09-08T03:26:26;99695.41;;;10.31;84.37
75045;BME280;63614;56.026;35.960;2023-09-08T03:28:52;99692.91;;;10.23;84.32
75045;BME280;63614;56.026;35.960;2023-09-08T03:31:18;99686.25;;;10.21;84.55
75045;BME280;63614;56.026;35.960;2023-09-08T03:33:45;99688.13;;;10.27;84.48
75045;BME280;63614;56.026;35.960;2023-09-08T03:36:11;99690.81;;;10.18;84.74
75045;BME280;63614;56.026;35.960;2023-09-08T03:38:37;99694.66;;;10.23;84.81
75045;BME280;63614;56.026;35.960;2023-09-08T03:41:03;99697.25;;;10.23;84.63
75045;BME280;63614;56.026;35.960;2023-09-08T03:43:29;99685.97;;;10.30;84.62
75045;BME280;63614;56.026;35.960;2023-09-08T03:45:56;99678.53;;;10.27;84.14
75045;BME280;63614;56.026;35.960;2023-09-08T03:48:22;99674.97;;;10.28;84.29
75045;BME280;63614;56.026;35.960;2023-09-08T03:50:48;99675.59;;;10.30;83.89
75045;BME280;63614;56.026;35.960;2023-09-08T03:53:14;99678.69;;;10.34;83.77
75045;BME280;63614;56.026;35.960;2023-09-08T03:55:40;99672.00;;;10.31;83.73
75045;BME280;63614;56.026;35.960;2023-09-08T03:58:06;99672.13;;;10.38;84.22
75045;BME280;63614;56.026;35.960;2023-09-08T04:00:32;99674.91;;;10.36;83.56
75045;BME280;63614;56.026;35.960;2023-09-08T04:02:57;99677.38;;;10.30;83.98
75045;BME280;63614;56.026;35.960;2023-09-08T04:05:23;99677.69;;;10.35;84.30
75045;BME280;63614;56.026;35.960;2023-09-08T04:07:49;99676.34;;;10.39;84.27
75045;BME280;63614;56.026;35.960;2023-09-08T04:10:16;99676.19;;;10.41;84.59
75045;BME280;63614;56.026;35.960;2023-09-08T04:12:42;99667.66;;;10.47;84.76
75045;BME280;63614;56.026;35.960;2023-09-08T04:15:09;99661.56;;;10.40;84.57
75045;BME280;63614;56.026;35.960;2023-09-08T04:17:36;99661.00;;;10.44;84.56
75045;BME280;63614;56.026;35.960;2023-09-08T04:20:06;99661.81;;;10.45;85.04
75045;BME280;63614;56.026;35.960;2023-09-08T04:22:33;99654.31;;;10.50;84.79
75045;BME280;63614;56.026;35.960;2023-09-08T04:25:01;99657.25;;;10.47;84.38
75045;BME280;63614;56.026;35.960;2023-09-08T04:27:32;99646.41;;;10.58;84.78
75045;BME280;63614;56.026;35.960;2023-09-08T04:29:59;99654.31;;;10.50;84.89
75045;BME280;63614;56.026;35.960;2023-09-08T04:32:25;99654.00;;;10.45;83.62
75045;BME280;63614;56.026;35.960;2023-09-08T04:34:51;99649.72;;;10.37;84.31
75045;BME280;63614;56.026;35.960;2023-09-08T04:37:18;99657.31;;;10.39;84.03
75045;BME280;63614;56.026;35.960;2023-09-08T04:39:44;99652.13;;;10.39;84.04
75045;BME280;63614;56.026;35.960;2023-09-08T04:42:12;99648.72;;;10.38;83.99
75045;BME280;63614;56.026;35.960;2023-09-08T04:44:40;99651.16;;;10.40;83.04
75045;BME280;63614;56.026;35.960;2023-09-08T04:47:07;99653.38;;;10.43;83.55
75045;BME280;63614;56.026;35.960;2023-09-08T04:49:33;99635.44;;;10.48;83.11
75045;BME280;63614;56.026;35.960;2023-09-08T04:51:59;99642.28;;;10.49;82.52
75045;BME280;63614;56.026;35.960;2023-09-08T04:54:25;99640.28;;;10.51;82.33
75045;BME280;63614;56.026;35.960;2023-09-08T04:56:54;99632.03;;;10.62;82.20
75045;BME280;63614;56.026;35.960;2023-09-08T04:59:20;99629.78;;;10.59;82.35
75045;BME280;63614;56.026;35.960;2023-09-08T05:01:49;99629.34;;;10.56;81.47
75045;BME280;63614;56.026;35.960;2023-09-08T05:04:17;99634.72;;;10.54;81.82
75045;BME280;63614;56.026;35.960;2023-09-08T05:06:43;99631.34;;;10.53;81.91
75045;BME280;63614;56.026;35.960;2023-09-08T05:09:09;99635.09;;;10.51;81.69
75045;BME280;63614;56.026;35.960;2023-09-08T05:11:35;99629.09;;;10.50;80.99
75045;BME280;63614;56.026;35.960;2023-09-08T05:14:02;99631.25;;;10.47;81.23
75045;BME280;63614;56.026;35.960;2023-09-08T05:16:28;99620.50;;;10.50;81.24
75045;BME280;63614;56.026;35.960;2023-09-08T05:19:13;99629.63;;;10.46;81.26
75045;BME280;63614;56.026;35.960;2023-09-08T05:21:39;99636.09;;;10.35;80.55
75045;BME280;63614;56.026;35.960;2023-09-08T05:24:06;99641.38;;;10.42;80.71
75045;BME280;63614;56.026;35.960;2023-09-08T05:26:36;99641.38;;;10.42;81.22
75045;BME280;63614;56.026;35.960;2023-09-08T05:29:02;99629.19;;;10.42;81.14
75045;BME280;63614;56.026;35.960;2023-09-08T05:31:28;99638.88;;;10.48;81.00
75045;BME280;63614;56.026;35.960;2023-09-08T05:33:53;99641.47;;;10.48;81.33
75045;BME280;63614;56.026;35.960;2023-09-08T05:36:19;99636.16;;;10.42;81.08
75045;BME280;63614;56.026;35.960;2023-09-08T05:38:45;99632.31;;;10.38;81.27
75045;BME280;63614;56.026;35.960;2023-09-08T05:41:11;99630.53;;;10.38;82.10
75045;BME280;63614;56.026;35.960;2023-09-08T05:43:37;99636.44;;;10.47;81.88
75045;BME280;63614;56.026;35.960;2023-09-08T05:46:03;99626.75;;;10.56;82.22
75045;BME280;63614;56.026;35.960;2023-09-08T05:48:30;99624.88;;;10.64;81.93
75045;BME280;63614;56.026;35.960;2023-09-08T05:50:57;99615.50;;;10.70;81.61
75045;BME280;63614;56.026;35.960;2023-09-08T05:53:24;99614.53;;;10.71;81.45
75045;BME280;63614;56.026;35.960;2023-09-08T05:55:50;99622.69;;;10.68;81.42
75045;BME280;63614;56.026;35.960;2023-09-08T05:58:16;99617.25;;;10.63;82.03
75045;BME280;63614;56.026;35.960;2023-09-08T06:00:41;99607.53;;;10.71;82.12
75045;BME280;63614;56.026;35.960;2023-09-08T06:03:07;99608.25;;;10.80;81.74
75045;BME280;63614;56.026;35.960;2023-09-08T06:05:33;99615.81;;;10.97;81.74
75045;BME280;63614;56.026;35.960;2023-09-08T06:07:59;99608.75;;;10.90;81.10
75045;BME280;63614;56.026;35.960;2023-09-08T06:10:25;99603.09;;;10.87;80.21
75045;BME280;63614;56.026;35.960;2023-09-08T06:12:51;99599.28;;;11.04;80.95
75045;BME280;63614;56.026;35.960;2023-09-08T06:15:17;99599.44;;;11.24;80.55
75045;BME280;63614;56.026;35.960;2023-09-08T06:17:43;99600.16;;;11.33;79.89
75045;BME280;63614;56.026;35.960;2023-09-08T06:20:09;99595.34;;;11.15;79.17
75045;BME280;63614;56.026;35.960;2023-09-08T06:22:35;99586.19;;;11.19;78.61
75045;BME280;63614;56.026;35.960;2023-09-08T06:25:02;99594.06;;;11.26;78.48
75045;BME280;63614;56.026;35.960;2023-09-08T06:27:29;99594.19;;;11.39;79.30
75045;BME280;63614;56.026;35.960;2023-09-08T06:29:55;99579.78;;;11.43;78.76
75045;BME280;63614;56.026;35.960;2023-09-08T06:32:23;99579.56;;;11.38;77.94
75045;BME280;63614;56.026;35.960;2023-09-08T06:34:49;99576.81;;;11.47;78.38
75045;BME280;63614;56.026;35.960;2023-09-08T06:37:15;99571.13;;;11.64;77.74
75045;BME280;63614;56.026;35.960;2023-09-08T06:39:41;99569.00;;;11.75;78.19
75045;BME280;63614;56.026;35.960;2023-09-08T06:42:07;99565.00;;;11.79;76.97
75045;BME280;63614;56.026;35.960;2023-09-08T06:44:34;99563.94;;;11.95;77.13
75045;BME280;63614;56.026;35.960;2023-09-08T06:47:00;99558.13;;;11.99;77.19
75045;BME280;63614;56.026;35.960;2023-09-08T06:49:26;99552.75;;;12.01;76.28
75045;BME280;63614;56.026;35.960;2023-09-08T06:51:52;99560.44;;;12.16;76.16
75045;BME280;63614;56.026;35.960;2023-09-08T06:54:18;99557.59;;;12.11;76.27
75045;BME280;63614;56.026;35.960;2023-09-08T06:56:45;99553.41;;;12.10;75.97
75045;BME280;63614;56.026;35.960;2023-09-08T06:59:11;99551.00;;;12.15;75.75
75045;BME280;63614;56.026;35.960;2023-09-08T07:01:37;99543.59;;;12.18;75.69
75045;BME280;63614;56.026;35.960;2023-09-08T07:04:03;99543.38;;;12.13;75.68
75045;BME280;63614;56.026;35.960;2023-09-08T07:06:31;99545.78;;;12.15;75.94
75045;BME280;63614;56.026;35.960;2023-09-08T07:08:57;99539.59;;;12.16;75.53
75045;BME280;63614;56.026;35.960;2023-09-08T07:11:24;99536.00;;;12.24;76.80
75045;BME280;63614;56.026;35.960;2023-09-08T07:13:50;99534.84;;;12.40;75.89
75045;BME280;63614;56.026;35.960;2023-09-08T07:16:15;99531.72;;;12.58;76.40
75045;BME280;63614;56.026;35.960;2023-09-08T07:18:41;99525.91;;;12.62;75.81
75045;BME280;63614;56.026;35.960;2023-09-08T07:21:08;99530.88;;;12.50;74.80
75045;BME280;63614;56.026;35.960;2023-09-08T07:23:34;99522.03;;;12.38;74.62
75045;BME280;63614;56.026;35.960;2023-09-08T07:26:03;99528.09;;;12.59;75.16
75045;BME280;63614;56.026;35.960;2023-09-08T07:28:30;99521.34;;;12.84;74.86
75045;BME280;63614;56.026;35.960;2023-09-08T07:31:03;99524.09;;;12.76;73.16
75045;BME280;63614;56.026;35.960;2023-09-08T07:33:31;99522.91;;;12.65;74.06
75045;BME280;63614;56.026;35.960;2023-09-08T07:35:57;99526.09;;;12.67;73.57
75045;BME280;63614;56.026;35.960;2023-09-08T07:38:24;99513.28;;;12.79;74.16
75045;BME280;63614;56.026;35.960;2023-09-08T07:40:49;99515.28;;;12.84;74.42
75045;BME280;63614;56.026;35.960;2023-09-08T07:43:15;99521.88;;;12.73;73.75
75045;BME280;63614;56.026;35.960;2023-09-08T07:45:42;99511.25;;;12.68;73.88
75045;BME280;63614;56.026;35.960;2023-09-08T07:48:08;99509.66;;;12.87;73.97
75045;BME280;63614;56.026;35.960;2023-09-08T07:50:34;99504.47;;;13.00;72.89
75045;BME280;63614;56.026;35.960;2023-09-08T07:52:59;99494.81;;;13.07;72.97
75045;BME280;63614;56.026;35.960;2023-09-08T07:55:25;99496.22;;;13.17;73.24
75045;BME280;63614;56.026;35.960;2023-09-08T07:57:55;99490.81;;;12.98;74.25
75045;BME280;63614;56.026;35.960;2023-09-08T08:00:21;99489.00;;;13.05;73.16
75045;BME280;63614;56.026;35.960;2023-09-08T08:02:49;99480.97;;;13.20;72.59
75045;BME280;63614;56.026;35.960;2023-09-08T08:05:15;99486.41;;;13.39;72.99
75045;BME280;63614;56.026;35.960;2023-09-08T08:07:42;99475.56;;;13.08;72.78
75045;BME280;63614;56.026;35.960;2023-09-08T08:10:09;99473.94;;;13.41;72.92
75045;BME280;63614;56.026;35.960;2023-09-08T08:12:36;99474.91;;;13.60;72.43
75045;BME280;63614;56.026;35.960;2023-09-08T08:15:03;99477.84;;;13.90;71.19
75045;BME280;63614;56.026;35.960;2023-09-08T08:17:30;99478.19;;;14.07;70.09
75045;BME280;63614;56.026;35.960;2023-09-08T08:19:57;99473.00;;;14.39;69.97
75045;BME280;63614;56.026;35.960;2023-09-08T08:22:33;99465.59;;;14.23;69.35
75045;BME280;63614;56.026;35.960;2023-09-08T08:25:00;99466.97;;;14.32;69.37
75045;BME280;63614;56.026;35.960;2023-09-08T08:27:31;99471.50;;;14.11;69.66
75045;BME280;63614;56.026;35.960;2023-09-08T08:29:58;99465.25;;;14.51;68.61
75045;BME280;63614;56.026;35.960;2023-09-08T08:32:43;99459.53;;;14.29;68.22
75045;BME280;63614;56.026;35.960;2023-09-08T08:35:09;99459.97;;;14.26;67.05
75045;BME280;63614;56.026;35.960;2023-09-08T08:37:36;99458.91;;;14.33;68.61
75045;BME280;63614;56.026;35.960;2023-09-08T08:40:02;99460.78;;;14.20;67.50
75045;BME280;63614;56.026;35.960;2023-09-08T08:42:32;99449.25;;;14.34;68.18
75045;BME280;63614;56.026;35.960;2023-09-08T08:44:59;99449.78;;;14.11;66.99
75045;BME280;63614;56.026;35.960;2023-09-08T08:47:27;99446.00;;;14.39;66.98
75045;BME280;63614;56.026;35.960;2023-09-08T08:49:56;99441.31;;;14.47;67.26
75045;BME280;63614;56.026;35.960;2023-09-08T08:52:25;99434.06;;;14.49;67.66
75045;BME280;63614;56.026;35.960;2023-09-08T08:54:51;99428.13;;;14.67;67.32
75045;BME280;63614;56.026;35.960;2023-09-08T08:57:17;99424.84;;;14.40;67.62
75045;BME280;63614;56.026;35.960;2023-09-08T08:59:45;99420.09;;;14.30;65.25
75045;BME280;63614;56.026;35.960;2023-09-08T09:02:12;99414.00;;;14.37;66.10
75045;BME280;63614;56.026;35.960;2023-09-08T09:04:40;99415.53;;;14.51;66.52
75045;BME280;63614;56.026;35.960;2023-09-08T09:07:07;99417.97;;;14.78;65.97
75045;BME280;63614;56.026;35.960;2023-09-08T09:09:33;99410.97;;;14.97;63.76
75045;BME280;63614;56.026;35.960;2023-09-08T09:11:59;99414.34;;;15.22;64.05
75045;BME280;63614;56.026;35.960;2023-09-08T09:14:28;99408.22;;;15.10;63.60
75045;BME280;63614;56.026;35.960;2023-09-08T09:16:56;99409.28;;;15.02;64.08
75045;BME280;63614;56.026;35.960;2023-09-08T09:19:23;99403.19;;;14.65;64.20
75045;BME280;63614;56.026;35.960;2023-09-08T09:21:58;99400.09;;;14.75;64.69
75045;BME280;63614;56.026;35.960;2023-09-08T09:26:57;99394.69;;;15.13;63.56
75045;BME280;63614;56.026;35.960;2023-09-08T09:29:23;99389.59;;;15.18;63.65
75045;BME280;63614;56.026;35.960;2023-09-08T09:31:57;99386.09;;;15.24;63.41
75045;BME280;63614;56.026;35.960;2023-09-08T09:34:27;99388.66;;;15.31;63.53
75045;BME280;63614;56.026;35.960;2023-09-08T09:36:53;99376.72;;;15.35;62.81
75045;BME280;63614;56.026;35.960;2023-09-08T09:39:20;99383.03;;;15.09;62.83
75045;BME280;63614;56.026;35.960;2023-09-08T09:41:47;99375.03;;;15.04;63.98
75045;BME280;63614;56.026;35.960;2023-09-08T09:44:15;99381.22;;;15.10;64.85
75045;BME280;63614;56.026;35.960;2023-09-08T09:46:43;99379.63;;;15.08;64.39
75045;BME280;63614;56.026;35.960;2023-09-08T09:49:14;99384.06;;;15.26;64.18
75045;BME280;63614;56.026;35.960;2023-09-08T09:51:44;99371.25;;;15.55;64.12
75045;BME280;63614;56.026;35.960;2023-09-08T09:54:11;99366.28;;;15.47;63.92
75045;BME280;63614;56.026;35.960;2023-09-08T09:56:38;99371.06;;;15.38;63.48
75045;BME280;63614;56.026;35.960;2023-09-08T09:59:03;99376.59;;;15.30;63.98
75045;BME280;63614;56.026;35.960;2023-09-08T10:01:31;99370.66;;;15.35;65.02
75045;BME280;63614;56.026;35.960;2023-09-08T10:03:58;99374.81;;;15.61;63.88
75045;BME280;63614;56.026;35.960;2023-09-08T10:06:25;99357.94;;;15.38;63.97
75045;BME280;63614;56.026;35.960;2023-09-08T10:08:51;99357.06;;;15.44;63.76
75045;BME280;63614;56.026;35.960;2023-09-08T10:11:21;99353.41;;;15.46;63.32
75045;BME280;63614;56.026;35.960;2023-09-08T10:13:50;99357.44;;;15.48;63.25
75045;BME280;63614;56.026;35.960;2023-09-08T10:16:19;99357.34;;;15.55;63.75
75045;BME280;63614;56.026;35.960;2023-09-08T10:18:47;99361.19;;;15.52;63.91
75045;BME280;63614;56.026;35.960;2023-09-08T10:21:16;99345.31;;;15.47;63.01
75045;BME280;63614;56.026;35.960;2023-09-08T10:23:54;99361.34;;;15.57;63.34
75045;BME280;63614;56.026;35.960;2023-09-08T10:26:26;99356.84;;;15.28;62.62
75045;BME280;63614;56.026;35.960;2023-09-08T10:28:54;99367.91;;;15.11;63.71
75045;BME280;63614;56.026;35.960;2023-09-08T10:31:26;99364.97;;;15.01;64.13
75045;BME280;63614;56.026;35.960;2023-09-08T10:33:54;99366.97;;;15.05;64.09
75045;BME280;63614;56.026;35.960;2023-09-08T10:36:21;99362.66;;;14.93;63.84
75045;BME280;63614;56.026;35.960;2023-09-08T10:38:47;99360.13;;;15.23;63.81
75045;BME280;63614;56.026;35.960;2023-09-08T10:43:42;99369.75;;;15.29;63.93
75045;BME280;63614;56.026;35.960;2023-09-08T10:46:09;99361.44;;;15.32;64.16
75045;BME280;63614;56.026;35.960;2023-09-08T10:48:42;99363.09;;;15.26;64.28
75045;BME280;63614;56.026;35.960;2023-09-08T10:51:13;99360.06;;;15.11;63.71
75045;BME280;63614;56.026;35.960;2023-09-08T10:53:40;99351.97;;;15.31;63.88
75045;BME280;63614;56.026;35.960;2023-09-08T10:56:06;99349.25;;;15.56;63.45
75045;BME280;63614;56.026;35.960;2023-09-08T10:58:35;99354.94;;;15.53;64.08
75045;BME280;63614;56.026;35.960;2023-09-08T11:01:05;99344.03;;;15.38;63.64
75045;BME280;63614;56.026;35.960;2023-09-08T11:06:06;99347.75;;;15.12;64.35
75045;BME280;63614;56.026;35.960;2023-09-08T11:08:36;99343.03;;;15.02;65.11
75045;BME280;63614;56.026;35.960;2023-09-08T11:11:02;99345.94;;;14.94;65.16
75045;BME280;63614;56.026;35.960;2023-09-08T11:13:29;99346.56;;;15.07;64.79
75045;BME280;63614;56.026;35.960;2023-09-08T11:15:56;99344.63;;;15.21;64.87
75045;BME280;63614;56.026;35.960;2023-09-08T11:18:28;99339.03;;;15.18;64.57
75045;BME280;63614;56.026;35.960;2023-09-08T11:20:54;99326.44;;;15.08;65.52
75045;BME280;63614;56.026;35.960;2023-09-08T11:23:21;99325.13;;;14.99;65.56
75045;BME280;63614;56.026;35.960;2023-09-08T11:25:49;99323.53;;;15.16;64.87
75045;BME280;63614;56.026;35.960;2023-09-08T11:28:16;99327.06;;;15.40;64.03
75045;BME280;63614;56.026;35.960;2023-09-08T11:30:42;99319.22;;;15.71;62.59
75045;BME280;63614;56.026;35.960;2023-09-08T11:33:19;99324.59;;;15.76;62.20
75045;BME280;63614;56.026;35.960;2023-09-08T11:35:45;99312.91;;;15.90;61.68
75045;BME280;63614;56.026;35.960;2023-09-08T11:38:11;99317.16;;;15.91;60.64
75045;BME280;63614;56.026;35.960;2023-09-08T11:40:38;99307.00;;;15.95;60.45
75045;BME280;63614;56.026;35.960;2023-09-08T11:43:05;99304.88;;;16.15;60.18
75045;BME280;63614;56.026;35.960;2023-09-08T11:45:34;99308.06;;;16.06;59.66
75045;BME280;63614;56.026;35.960;2023-09-08T11:48:00;99310.91;;;16.16;59.77
75045;BME280;63614;56.026;35.960;2023-09-08T11:50:26;99307.50;;;16.04;60.13
75045;BME280;63614;56.026;35.960;2023-09-08T11:52:55;99306.94;;;16.25;61.05
75045;BME280;63614;56.026;35.960;2023-09-08T11:55:23;99300.19;;;16.17;60.37
75045;BME280;63614;56.026;35.960;2023-09-08T11:57:51;99304.19;;;16.08;60.63
75045;BME280;63614;56.026;35.960;2023-09-08T12:00:23;99300.75;;;16.08;59.83
75045;BME280;63614;56.026;35.960;2023-09-08T12:02:53;99304.59;;;15.93;59.45
75045;BME280;63614;56.026;35.960;2023-09-08T12:05:26;99290.50;;;15.76;59.79
75045;BME280;63614;56.026;35.960;2023-09-08T12:07:57;99300.88;;;15.71;60.46
75045;BME280;63614;56.026;35.960;2023-09-08T12:10:24;99305.03;;;15.60;59.96
75045;BME280;63614;56.026;35.960;2023-09-08T12:12:52;99292.69;;;15.49;59.32
75045;BME280;63614;56.026;35.960;2023-09-08T12:15:36;99304.13;;;15.36;58.80
75045;BME280;63614;56.026;35.960;2023-09-08T12:18:07;99292.88;;;15.35;58.80
75045;BME280;63614;56.026;35.960;2023-09-08T12:20:34;99292.72;;;15.30;58.52
75045;BME280;63614;56.026;35.960;2023-09-08T12:23:02;99299.34;;;15.33;59.15
75045;BME280;63614;56.026;35.960;2023-09-08T12:25:29;99295.78;;;15.27;59.71
75045;BME280;63614;56.026;35.960;2023-09-08T12:27:59;99305.38;;;15.33;60.20
75045;BME280;63614;56.026;35.960;2023-09-08T12:30:26;99306.06;;;15.29;60.96
75045;BME280;63614;56.026;35.960;2023-09-08T12:32:58;99304.66;;;15.26;61.60
75045;BME280;63614;56.026;35.960;2023-09-08T12:35:25;99303.06;;;15.25;62.16
75045;BME280;63614;56.026;35.960;2023-09-08T12:38:03;99301.47;;;15.24;61.88
75045;BME280;63614;56.026;35.960;2023-09-08T12:40:36;99297.09;;;15.18;62.32
75045;BME280;63614;56.026;35.960;2023-09-08T12:43:03;99304.00;;;15.12;62.40
75045;BME280;63614;56.026;35.960;2023-09-08T12:45:29;99305.53;;;15.20;62.14
75045;BME280;63614;56.026;35.960;2023-09-08T12:47:57;99304.59;;;15.14;61.99
75045;BME280;63614;56.026;35.960;2023-09-08T12:50:24;99309.41;;;15.17;62.03
75045;BME280;63614;56.026;35.960;2023-09-08T12:52:50;99316.66;;;15.15;61.75
75045;BME280;63614;56.026;35.960;2023-09-08T12:55:16;99303.34;;;15.17;62.01
75045;BME280;63614;56.026;35.960;2023-09-08T12:57:42;99310.50;;;15.10;62.64
75045;BME280;63614;56.026;35.960;2023-09-08T13:00:11;99311.28;;;15.10;62.41